createdAt,value
2023-01-09T00:01:51.671Z,99921.05
2023-01-09T00:04:24.396Z,99922.51
2023-01-09T00:06:57.647Z,99923.73
2023-01-09T00:09:30.540Z,99939.40
2023-01-09T00:12:03.951Z,99953.79
2023-01-09T00:14:39.616Z,99963.62
2023-01-09T00:17:12.251Z,99969.59
2023-01-09T00:19:44.958Z,99966.36
2023-01-09T00:22:17.749Z,99959.48
2023-01-09T00:24:50.639Z,99962.73
2023-01-09T00:27:23.389Z,99961.87
2023-01-09T00:29:57.474Z,99957.39
2023-01-09T00:32:30.691Z,99943.30
2023-01-09T00:35:03.784Z,99926.02
2023-01-09T00:37:36.501Z,99920.73
2023-01-09T00:40:15.090Z,99926.52
2023-01-09T00:42:51.718Z,99929.39
2023-01-09T00:45:29.302Z,99924.64
2023-01-09T00:48:09.496Z,99926.48
2023-01-09T00:50:42.281Z,99928.45
2023-01-09T00:53:19.257Z,99932.02
2023-01-09T00:55:53.020Z,99933.11
2023-01-09T00:58:25.770Z,99935.70
2023-01-09T01:00:58.816Z,99931.11
2023-01-09T01:03:32.174Z,99926.08
2023-01-09T01:06:22.359Z,99917.09
2023-01-09T01:08:56.520Z,99920.60
2023-01-09T01:11:29.477Z,99920.34
2023-01-09T01:14:02.531Z,99922.95
2023-01-09T01:16:35.598Z,99922.61
2023-01-09T01:19:08.437Z,99919.45
2023-01-09T01:21:41.650Z,99919.88
2023-01-09T01:24:18.250Z,99917.67
2023-01-09T01:26:51.093Z,99917.11
2023-01-09T01:29:23.848Z,99915.84
2023-01-09T01:31:56.656Z,99916.23
2023-01-09T01:34:32.334Z,99913.81
2023-01-09T01:37:05.954Z,99919.70
2023-01-09T01:39:38.892Z,99923.17
2023-01-09T01:42:13.069Z,99925.69
2023-01-09T01:45:10.118Z,99923.23
2023-01-09T01:47:57.146Z,99924.22
2023-01-09T01:50:34.781Z,99921.63
2023-01-09T01:53:13.920Z,99912.58
2023-01-09T01:55:58.203Z,99908.14
2023-01-09T01:58:32.299Z,99906.78
2023-01-09T02:01:06.120Z,99904.30
2023-01-09T02:03:41.254Z,99905.06
2023-01-09T02:06:15.227Z,99900.21
2023-01-09T02:08:51.638Z,99901.05
2023-01-09T02:11:24.533Z,99895.68
2023-01-09T02:13:57.411Z,99889.74
2023-01-09T02:16:42.987Z,99888.03
2023-01-09T02:19:36.828Z,99890.17
2023-01-09T02:22:20.768Z,99885.65
2023-01-09T02:25:13.967Z,99876.25
2023-01-09T02:28:19.937Z,99875.13
2023-01-09T02:30:58.618Z,99869.32
2023-01-09T02:33:51.477Z,99876.70
2023-01-09T02:36:35.695Z,99876.24
2023-01-09T02:39:22.745Z,99871.73
2023-01-09T02:42:02.302Z,99864.91
2023-01-09T02:44:37.038Z,99863.20
2023-01-09T02:47:24.340Z,99860.77
2023-01-09T02:50:02.800Z,99867.20
2023-01-09T02:52:47.857Z,99862.98
2023-01-09T02:55:32.135Z,99868.11
2023-01-09T02:58:16.095Z,99868.96
2023-01-09T03:01:00.699Z,99870.67
2023-01-09T03:03:40.146Z,99872.58
2023-01-09T03:06:22.277Z,99865.74
2023-01-09T03:08:59.652Z,99866.75
2023-01-09T03:11:39.556Z,99862.77
2023-01-09T03:14:19.493Z,99855.20
2023-01-09T03:16:58.158Z,99850.09
2023-01-09T03:19:33.831Z,99837.27
2023-01-09T03:22:06.566Z,99838.10
2023-01-09T03:24:39.338Z,99832.04
2023-01-09T03:27:12.217Z,99826.96
2023-01-09T03:29:45.024Z,99824.38
2023-01-09T03:32:18.381Z,99827.55
2023-01-09T03:34:51.683Z,99827.38
2023-01-09T03:37:24.410Z,99821.60
2023-01-09T03:39:57.196Z,99820.38
2023-01-09T03:42:30.462Z,99818.41
2023-01-09T03:45:03.216Z,99818.27
2023-01-09T03:47:36.201Z,99819.29
2023-01-09T03:50:11.315Z,99819.75
2023-01-09T03:52:43.982Z,99810.70
2023-01-09T03:55:16.851Z,99812.64
2023-01-09T03:57:50.148Z,99816.42
2023-01-09T04:00:24.054Z,99816.28
2023-01-09T04:02:57.099Z,99817.65
2023-01-09T04:05:29.984Z,99814.02
2023-01-09T04:08:04.862Z,99809.63
2023-01-09T04:10:37.819Z,99802.63
2023-01-09T04:13:10.618Z,99801.38
2023-01-09T04:15:43.734Z,99797.77
2023-01-09T04:18:16.970Z,99797.27
2023-01-09T04:20:52.428Z,99787.70
2023-01-09T04:23:25.746Z,99788.54
2023-01-09T04:25:58.719Z,99790.40
2023-01-09T04:28:31.610Z,99790.02
2023-01-09T04:31:06.108Z,99786.92
2023-01-09T04:33:38.992Z,99787.39
2023-01-09T04:36:13.030Z,99789.22
2023-01-09T04:38:45.679Z,99789.91
2023-01-09T04:41:32.263Z,99797.75
2023-01-09T04:44:05.291Z,99798.31
2023-01-09T04:46:38.222Z,99799.09
2023-01-09T04:49:11.365Z,99798.37
2023-01-09T04:51:44.249Z,99801.05
2023-01-09T04:54:17.464Z,99802.80
2023-01-09T04:56:50.363Z,99804.66
2023-01-09T04:59:26.317Z,99806.27
2023-01-09T05:02:01.657Z,99806.46
2023-01-09T05:04:37.813Z,99798.71
2023-01-09T05:07:10.653Z,99797.92
2023-01-09T05:09:44.268Z,99796.18
2023-01-09T05:12:16.968Z,99794.48
2023-01-09T05:14:49.658Z,99787.09
2023-01-09T05:17:22.552Z,99782.23
2023-01-09T05:19:55.322Z,99775.30
2023-01-09T05:22:28.222Z,99772.34
2023-01-09T05:25:01.329Z,99774.79
2023-01-09T05:27:34.162Z,99773.78
2023-01-09T05:30:09.009Z,99772.02
2023-01-09T05:32:42.038Z,99766.56
2023-01-09T05:35:14.897Z,99762.98
2023-01-09T05:37:47.795Z,99762.39
2023-01-09T05:40:23.149Z,99762.14
2023-01-09T05:42:59.569Z,99761.71
2023-01-09T05:45:32.209Z,99754.01
2023-01-09T05:48:14.620Z,99744.25
2023-01-09T05:51:04.028Z,99733.38
2023-01-09T05:53:57.517Z,99735.20
2023-01-09T05:56:32.809Z,99736.31
2023-01-09T05:59:05.491Z,99737.66
2023-01-09T06:01:38.228Z,99733.84
2023-01-09T06:04:48.617Z,99727.30
2023-01-09T06:07:23.471Z,99728.33
2023-01-09T06:09:57.977Z,99725.08
2023-01-09T06:12:30.601Z,99723.85
2023-01-09T06:15:21.788Z,99721.95
2023-01-09T06:17:55.896Z,99722.58
2023-01-09T06:20:28.582Z,99718.76
2023-01-09T06:23:01.338Z,99717.20
2023-01-09T06:25:34.281Z,99717.36
2023-01-09T06:28:10.876Z,99718.41
2023-01-09T06:30:44.073Z,99714.15
2023-01-09T06:33:16.975Z,99711.85
2023-01-09T06:35:49.806Z,99712.67
2023-01-09T06:38:22.827Z,99708.27
2023-01-09T06:40:55.694Z,99709.64
2023-01-09T06:43:28.632Z,99708.48
2023-01-09T06:46:01.501Z,99704.00
2023-01-09T06:48:34.681Z,99713.24
2023-01-09T06:51:07.582Z,99713.29
2023-01-09T06:53:40.457Z,99713.20
2023-01-09T06:56:13.131Z,99718.32
2023-01-09T06:58:45.946Z,99718.87
2023-01-09T07:01:18.709Z,99723.00
2023-01-09T07:03:51.773Z,99717.05
2023-01-09T07:06:24.990Z,99717.15
2023-01-09T07:08:57.844Z,99717.02
2023-01-09T07:11:30.749Z,99721.35
2023-01-09T07:14:03.623Z,99721.35
2023-01-09T07:16:36.726Z,99719.73
2023-01-09T07:19:09.535Z,99714.39
2023-01-09T07:21:42.414Z,99720.05
2023-01-09T07:24:15.261Z,99722.41
2023-01-09T07:26:48.235Z,99723.13
2023-01-09T07:29:21.084Z,99720.95
2023-01-09T07:31:53.723Z,99719.80
2023-01-09T07:34:26.642Z,99719.13
2023-01-09T07:36:59.665Z,99720.20
2023-01-09T07:39:32.353Z,99725.05
2023-01-09T07:42:05.027Z,99727.09
2023-01-09T07:44:39.283Z,99726.38
2023-01-09T07:47:17.416Z,99723.44
2023-01-09T07:49:50.167Z,99720.60
2023-01-09T07:52:23.107Z,99718.45
2023-01-09T07:54:55.955Z,99722.52
2023-01-09T07:57:29.934Z,99720.30
2023-01-09T08:00:03.734Z,99724.45
2023-01-09T08:02:44.879Z,99725.34
2023-01-09T08:05:19.076Z,99722.39
2023-01-09T08:07:52.111Z,99720.71
2023-01-09T08:10:24.747Z,99719.52
2023-01-09T08:12:57.808Z,99711.42
2023-01-09T08:15:30.899Z,99708.00
2023-01-09T08:18:06.317Z,99702.90
2023-01-09T08:20:39.323Z,99703.80
2023-01-09T08:23:11.958Z,99699.80
2023-01-09T08:25:44.563Z,99697.09
2023-01-09T08:28:19.483Z,99697.09
2023-01-09T08:30:52.638Z,99696.02
2023-01-09T08:33:25.512Z,99693.09
2023-01-09T08:35:58.327Z,99693.78
2023-01-09T08:38:31.235Z,99685.27
2023-01-09T08:41:24.954Z,99679.45
2023-01-09T08:44:15.179Z,99670.38
2023-01-09T08:47:05.592Z,99668.13
2023-01-09T08:49:40.053Z,99659.21
2023-01-09T08:52:13.830Z,99651.70
2023-01-09T08:54:46.819Z,99651.19
2023-01-09T08:57:19.725Z,99645.52
2023-01-09T08:59:52.679Z,99643.66
2023-01-09T09:02:25.728Z,99642.12
2023-01-09T09:04:59.468Z,99646.88
2023-01-09T09:07:32.063Z,99644.73
2023-01-09T09:10:05.725Z,99639.82
2023-01-09T09:12:38.367Z,99642.70
2023-01-09T09:15:20.369Z,99640.11
2023-01-09T09:17:54.796Z,99640.20
2023-01-09T09:20:30.617Z,99638.48
2023-01-09T09:23:03.585Z,99632.45
2023-01-09T09:25:40.816Z,99631.81
2023-01-09T09:28:13.976Z,99626.01
2023-01-09T09:30:46.880Z,99628.59
2023-01-09T09:33:19.794Z,99629.95
2023-01-09T09:35:52.730Z,99630.92
2023-01-09T09:38:25.623Z,99636.52
2023-01-09T09:41:32.316Z,99642.83
2023-01-09T09:44:43.781Z,99639.61
2023-01-09T09:47:38.501Z,99634.63
2023-01-09T09:50:27.304Z,99622.50
2023-01-09T09:53:09.295Z,99612.69
2023-01-09T09:55:43.423Z,99608.33
2023-01-09T09:58:22.376Z,99605.02
2023-01-09T10:00:57.240Z,99598.06
2023-01-09T10:03:38.564Z,99595.33
2023-01-09T10:06:18.778Z,99584.70
2023-01-09T10:09:01.536Z,99581.16
2023-01-09T10:11:41.132Z,99581.09
2023-01-09T10:14:23.592Z,99584.23
2023-01-09T10:17:12.408Z,99581.00
2023-01-09T10:20:06.709Z,99579.67
2023-01-09T10:22:48.447Z,99583.73
2023-01-09T10:25:27.550Z,99580.85
2023-01-09T10:28:17.616Z,99581.65
2023-01-09T10:30:53.411Z,99579.11
2023-01-09T10:33:42.004Z,99577.27
2023-01-09T10:36:51.361Z,99578.20
2023-01-09T10:39:28.815Z,99580.60
2023-01-09T10:42:26.213Z,99578.77
2023-01-09T10:45:57.634Z,99582.35
2023-01-09T10:48:34.961Z,99581.34
2023-01-09T10:51:16.677Z,99581.66
2023-01-09T10:53:53.614Z,99573.88
2023-01-09T10:56:29.317Z,99570.40
2023-01-09T10:59:02.172Z,99569.09
2023-01-09T11:02:05.190Z,99565.27
2023-01-09T11:04:40.936Z,99561.67
2023-01-09T11:07:21.843Z,99559.66
2023-01-09T11:10:08.254Z,99552.91
2023-01-09T11:12:41.861Z,99547.20
2023-01-09T11:15:33.364Z,99542.19
2023-01-09T11:18:25.121Z,99539.39
2023-01-09T11:21:13.357Z,99542.80
2023-01-09T11:23:45.985Z,99537.61
2023-01-09T11:26:27.931Z,99536.71
2023-01-09T11:29:13.758Z,99531.63
2023-01-09T11:31:58.176Z,99526.38
2023-01-09T11:34:33.416Z,99525.48
2023-01-09T11:37:11.635Z,99525.52
2023-01-09T11:39:48.625Z,99520.52
2023-01-09T11:42:49.193Z,99518.85
2023-01-09T11:45:26.837Z,99514.69
2023-01-09T11:48:58.732Z,99514.44
2023-01-09T11:52:22.548Z,99514.73
2023-01-09T11:55:41.990Z,99518.13
2023-01-09T12:02:24.906Z,99511.58
2023-01-09T12:05:42.931Z,99506.65
2023-01-09T12:12:05.760Z,99499.17
2023-01-09T12:14:51.353Z,99497.14
2023-01-09T12:21:27.173Z,99488.55
2023-01-09T12:24:56.269Z,99486.95
2023-01-09T12:31:12.507Z,99482.56
2023-01-09T12:33:53.841Z,99474.29
2023-01-09T12:36:34.253Z,99478.10
2023-01-09T12:39:19.648Z,99477.14
2023-01-09T12:42:24.430Z,99471.46
2023-01-09T12:45:03.028Z,99468.42
2023-01-09T12:47:50.185Z,99467.21
2023-01-09T12:50:38.864Z,99467.82
2023-01-09T12:53:46.261Z,99467.52
2023-01-09T12:56:38.367Z,99463.93
2023-01-09T12:59:30.912Z,99461.09
2023-01-09T13:05:38.230Z,99453.93
2023-01-09T13:08:17.767Z,99450.88
2023-01-09T13:10:53.437Z,99448.35
2023-01-09T13:13:32.338Z,99448.54
2023-01-09T13:16:08.568Z,99449.23
2023-01-09T13:18:46.674Z,99446.02
2023-01-09T13:21:23.850Z,99452.81
2023-01-09T13:24:48.562Z,99452.66
2023-01-09T13:27:39.181Z,99452.17
2023-01-09T13:31:02.536Z,99453.03
2023-01-09T13:33:39.365Z,99455.91
2023-01-09T13:36:40.451Z,99455.22
2023-01-09T13:39:33.215Z,99449.48
2023-01-09T13:43:02.826Z,99453.16
2023-01-09T13:46:14.913Z,99453.19
2023-01-09T13:48:59.064Z,99455.95
2023-01-09T13:52:00.715Z,99451.99
2023-01-09T13:55:25.328Z,99458.67
2023-01-09T13:58:26.543Z,99456.44
2023-01-09T14:01:08.302Z,99463.75
2023-01-09T14:03:44.288Z,99467.30
2023-01-09T14:06:21.620Z,99462.31
2023-01-09T14:09:23.213Z,99456.98
2023-01-09T14:12:07.801Z,99466.02
2023-01-09T14:14:46.334Z,99464.90
2023-01-09T14:20:41.923Z,99461.27
2023-01-09T14:23:50.791Z,99468.05
2023-01-09T14:26:42.673Z,99470.29
2023-01-09T14:30:02.706Z,99474.09
2023-01-09T14:33:02.858Z,99485.31
2023-01-09T14:36:12.759Z,99493.84
2023-01-09T14:38:48.071Z,99485.41
2023-01-09T14:41:50.733Z,99496.20
2023-01-09T14:45:05.456Z,99494.34
2023-01-09T14:47:43.071Z,99503.89
2023-01-09T14:50:23.739Z,99505.41
2023-01-09T14:53:24.575Z,99515.48
2023-01-09T14:56:25.402Z,99516.44
2023-01-09T14:59:22.740Z,99518.59
2023-01-09T15:09:20.900Z,99524.45
2023-01-09T15:11:56.275Z,99525.93
2023-01-09T15:14:40.033Z,99530.75
2023-01-09T15:17:30.707Z,99531.38
2023-01-09T15:20:41.900Z,99537.89
2023-01-09T15:23:38.963Z,99539.83
2023-01-09T15:26:56.807Z,99540.46
2023-01-09T15:29:30.223Z,99534.54
2023-01-09T15:35:50.360Z,99541.35
2023-01-09T15:39:07.574Z,99546.89
2023-01-09T15:42:05.016Z,99554.27
2023-01-09T15:44:59.487Z,99557.02
2023-01-09T15:47:38.542Z,99563.03
2023-01-09T15:50:16.289Z,99554.06
2023-01-09T15:53:08.406Z,99554.60
2023-01-09T15:56:30.663Z,99555.09
2023-01-09T15:59:04.295Z,99559.02
2023-01-09T16:01:48.982Z,99562.82
2023-01-09T16:04:37.040Z,99564.45
2023-01-09T16:07:16.962Z,99564.73
2023-01-09T16:09:52.860Z,99565.77
2023-01-09T16:12:29.554Z,99569.61
2023-01-09T16:15:34.610Z,99578.36
2023-01-09T16:19:39.764Z,99583.21
2023-01-09T16:23:05.665Z,99588.72
2023-01-09T16:25:39.404Z,99591.06
2023-01-09T16:28:23.199Z,99594.91
2023-01-09T16:30:59.847Z,99591.65
2023-01-09T16:34:01.745Z,99585.90
2023-01-09T16:40:09.335Z,99592.36
2023-01-09T16:43:07.271Z,99600.94
2023-01-09T16:45:42.466Z,99601.95
2023-01-09T16:48:24.684Z,99605.84
2023-01-09T16:51:45.006Z,99608.23
2023-01-09T16:58:10.489Z,99625.84
2023-01-09T17:01:34.511Z,99626.34
2023-01-09T17:04:14.294Z,99641.46
2023-01-09T17:06:48.419Z,99643.27
2023-01-09T17:09:27.486Z,99634.31
2023-01-09T17:12:01.637Z,99636.77
2023-01-09T17:14:34.338Z,99637.92
2023-01-09T17:17:13.235Z,99636.55
2023-01-09T17:20:04.653Z,99638.36
2023-01-09T17:22:37.436Z,99638.94
2023-01-09T17:25:48.022Z,99643.95
2023-01-09T17:28:36.227Z,99647.11
2023-01-09T17:31:13.203Z,99652.96
2023-01-09T17:33:45.913Z,99656.01
2023-01-09T17:36:28.954Z,99658.89
2023-01-09T17:39:02.138Z,99661.48
2023-01-09T17:41:35.523Z,99660.70
2023-01-09T17:44:09.196Z,99661.90
2023-01-09T17:46:44.860Z,99662.34
2023-01-09T17:52:29.130Z,99667.08
2023-01-09T17:55:25.080Z,99658.40
2023-01-09T17:57:59.540Z,99657.73
2023-01-09T18:00:36.837Z,99653.90
2023-01-09T18:03:09.703Z,99652.51
2023-01-09T18:05:42.384Z,99667.06
2023-01-09T18:08:16.406Z,99671.77
2023-01-09T18:10:50.201Z,99671.70
2023-01-09T18:13:22.949Z,99672.10
2023-01-09T18:16:02.554Z,99676.67
2023-01-09T18:18:36.727Z,99675.70
2023-01-09T18:21:49.473Z,99677.53
2023-01-09T18:24:22.895Z,99680.95
2023-01-09T18:27:22.113Z,99679.89
2023-01-09T18:30:23.683Z,99680.98
2023-01-09T18:33:35.886Z,99679.46
2023-01-09T18:36:51.079Z,99679.61
2023-01-09T18:39:32.498Z,99687.55
2023-01-09T18:42:23.628Z,99692.33
2023-01-09T18:45:26.810Z,99705.36
2023-01-09T18:48:23.345Z,99705.91
2023-01-09T18:51:30.519Z,99711.50
2023-01-09T18:54:32.212Z,99709.40
2023-01-09T18:57:05.057Z,99708.05
2023-01-09T18:59:37.798Z,99708.89
2023-01-09T19:02:18.745Z,99711.88
2023-01-09T19:04:53.441Z,99714.08
2023-01-09T19:07:26.252Z,99718.30
2023-01-09T19:09:59.499Z,99722.18
2023-01-09T19:12:32.251Z,99722.92
2023-01-09T19:15:11.627Z,99727.75
2023-01-09T19:17:58.494Z,99727.85
2023-01-09T19:20:31.721Z,99726.61
2023-01-09T19:23:04.594Z,99728.71
2023-01-09T19:25:37.300Z,99739.81
2023-01-09T19:28:10.655Z,99742.61
2023-01-09T19:30:44.934Z,99741.25
2023-01-09T19:36:43.656Z,99758.54
2023-01-09T19:39:16.823Z,99763.81
2023-01-09T19:41:49.559Z,99769.21
2023-01-09T19:44:29.247Z,99780.37
2023-01-09T19:47:14.795Z,99787.89
2023-01-09T19:49:47.547Z,99798.95
2023-01-09T19:52:20.462Z,99804.30
2023-01-09T19:55:21.736Z,99814.45
2023-01-09T19:57:54.937Z,99819.23
2023-01-09T20:00:35.404Z,99823.34
2023-01-09T20:05:14.861Z,99835.28
2023-01-09T20:07:47.700Z,99830.42
2023-01-09T20:10:20.807Z,99825.29
2023-01-09T20:12:53.487Z,99818.48
2023-01-09T20:15:26.220Z,99822.23
2023-01-09T20:17:59.960Z,99816.97
2023-01-09T20:20:32.943Z,99813.61
2023-01-09T20:23:05.659Z,99816.73
2023-01-09T20:25:38.409Z,99814.70
2023-01-09T20:31:25.189Z,99826.66
2023-01-09T20:34:01.016Z,99830.21
2023-01-09T20:36:55.470Z,99837.98
2023-01-09T20:39:28.419Z,99850.42
2023-01-09T20:42:01.136Z,99858.05
2023-01-09T20:44:33.955Z,99855.64
2023-01-09T20:47:06.913Z,99858.88
2023-01-09T20:49:39.811Z,99860.89
2023-01-09T20:52:12.991Z,99861.83
2023-01-09T20:54:46.099Z,99872.76
2023-01-09T20:57:19.224Z,99877.09
2023-01-09T20:59:52.099Z,99883.31
2023-01-09T21:02:25.290Z,99880.18
2023-01-09T21:05:25.347Z,99878.92
2023-01-09T21:07:58.219Z,99876.27
2023-01-09T21:10:31.027Z,99875.83
2023-01-09T21:13:03.637Z,99873.94
2023-01-09T21:15:38.166Z,99877.48
2023-01-09T21:18:10.890Z,99886.48
2023-01-09T21:20:44.167Z,99891.14
2023-01-09T21:23:19.490Z,99894.96
2023-01-09T21:25:52.359Z,99901.06
2023-01-09T21:28:25.588Z,99904.95
2023-01-09T21:30:58.556Z,99912.15
2023-01-09T21:33:31.412Z,99915.98
2023-01-09T21:36:05.246Z,99925.59
2023-01-09T21:38:38.597Z,99931.73
2023-01-09T21:41:29.485Z,99935.72
2023-01-09T21:44:20.423Z,99940.52
2023-01-09T21:46:57.808Z,99944.84
2023-01-09T21:49:35.238Z,99949.00
2023-01-09T21:52:08.644Z,99959.95
2023-01-09T21:54:42.642Z,99966.11
2023-01-09T21:57:15.777Z,99967.08
2023-01-09T21:59:48.838Z,99970.91
2023-01-09T22:02:22.982Z,99973.06
2023-01-09T22:05:00.333Z,99978.12
2023-01-09T22:07:35.881Z,99979.08
2023-01-09T22:10:10.920Z,99986.39
2023-01-09T22:13:04.825Z,99994.66
2023-01-09T22:15:38.480Z,99993.66
2023-01-09T22:18:11.262Z,99996.20
2023-01-09T22:20:44.035Z,100003.27
2023-01-09T22:23:17.085Z,100007.80
2023-01-09T22:25:50.228Z,100013.98
2023-01-09T22:28:24.147Z,100016.05
2023-01-09T22:30:56.981Z,100023.94
2023-01-09T22:33:29.950Z,100028.50
2023-01-09T22:36:08.917Z,100027.67
2023-01-09T22:38:41.810Z,100027.86
2023-01-09T22:41:14.807Z,100029.86
2023-01-09T22:43:47.796Z,100032.80
2023-01-09T22:46:21.407Z,100032.48
2023-01-09T22:48:54.290Z,100035.63
2023-01-09T22:51:27.252Z,100041.54
2023-01-09T22:54:00.570Z,100046.41
2023-01-09T22:56:33.411Z,100047.28
2023-01-09T22:59:06.139Z,100052.98
2023-01-09T23:01:39.389Z,100057.92
2023-01-09T23:05:04.819Z,100060.19
2023-01-09T23:08:19.574Z,100063.15
2023-01-09T23:10:51.862Z,100066.91
2023-01-09T23:13:24.775Z,100069.13
2023-01-09T23:15:57.516Z,100070.34
2023-01-09T23:18:30.338Z,100071.10
2023-01-09T23:21:04.813Z,100071.95
2023-01-09T23:23:37.960Z,100076.20
2023-01-09T23:26:13.284Z,100079.48
2023-01-09T23:28:45.919Z,100084.73
2023-01-09T23:31:18.857Z,100082.66
2023-01-09T23:33:51.485Z,100085.86
2023-01-09T23:36:24.371Z,100088.67
2023-01-09T23:38:59.703Z,100093.58
2023-01-09T23:41:48.604Z,100098.88
2023-01-09T23:44:21.397Z,100093.34
2023-01-09T23:46:54.351Z,100097.80
2023-01-09T23:49:27.062Z,100096.02
2023-01-09T23:52:01.723Z,100096.19
2023-01-09T23:54:34.340Z,100099.20
2023-01-09T23:57:08.305Z,100106.40
2023-01-09T23:59:40.884Z,100109.22
